Time;durP1;ratioP1;P1;durP2;ratioP2;P2;SDS_P1;SDS_P2;PMS_P1;PMS_P2;Temp;Humidity;BMP_temperature;BMP_pressure;BME280_temperature;BME280_humidity;BME280_pressure;Samples;Min_cycle;Max_cycle;Signal;HPM_P1;HPM_P2
2022/01/10 00:00:22;;;;;;;5.83;2.80;;;6.30;99.90;;;;;;5003505;28;21340;-70
2022/01/10 00:02:52;;;;;;;6.77;2.90;;;6.40;99.90;;;;;;5011571;28;20696;-71
2022/01/10 00:05:17;;;;;;;6.60;3.37;;;6.40;99.90;;;;;;5005480;28;20603;-71
2022/01/10 00:07:45;;;;;;;7.80;3.23;;;6.30;99.90;;;;;;5012234;28;20644;-70
2022/01/10 00:10:12;;;;;;;5.83;3.60;;;6.40;99.90;;;;;;5007445;28;20225;-71
2022/01/10 00:12:38;;;;;;;9.77;3.67;;;6.30;99.90;;;;;;5009711;28;20648;-72
2022/01/10 00:15:05;;;;;;;9.03;3.50;;;6.30;99.90;;;;;;5004938;28;20615;-70
2022/01/10 00:17:31;;;;;;;8.00;3.13;;;6.30;99.90;;;;;;5012420;28;20747;-71
2022/01/10 00:19:56;;;;;;;3.40;2.93;;;6.30;99.90;;;;;;5005420;28;20636;-71
2022/01/10 00:22:23;;;;;;;5.33;3.27;;;6.30;99.90;;;;;;5026579;28;20237;-70
2022/01/10 00:24:49;;;;;;;6.77;3.00;;;6.20;99.90;;;;;;5013873;28;20201;-71
2022/01/10 00:27:17;;;;;;;7.03;3.17;;;6.20;99.90;;;;;;5014537;28;20639;-71
2022/01/10 00:29:43;;;;;;;4.80;2.70;;;6.20;99.90;;;;;;5013438;28;20209;-71
2022/01/10 00:32:09;;;;;;;5.63;3.07;;;6.20;99.90;;;;;;5013905;28;20643;-71
2022/01/10 00:34:34;;;;;;;7.73;3.67;;;6.20;99.90;;;;;;5007597;28;20232;-71
2022/01/10 00:37:05;;;;;;;9.40;3.60;;;6.20;99.90;;;;;;5013903;28;20677;-71
2022/01/10 00:39:31;;;;;;;7.97;3.10;;;6.20;99.90;;;;;;5005749;28;20611;-71
2022/01/10 00:41:57;;;;;;;10.17;3.13;;;6.20;99.90;;;;;;5006918;28;20667;-71
2022/01/10 00:44:25;;;;;;;5.00;2.73;;;6.20;99.90;;;;;;5009548;28;20229;-71
2022/01/10 00:46:52;;;;;;;11.23;4.00;;;6.20;99.90;;;;;;5006464;28;20716;-70
2022/01/10 00:49:20;;;;;;;12.17;3.57;;;6.20;99.90;;;;;;5001834;28;20649;-71
2022/01/10 00:51:46;;;;;;;5.73;3.20;;;6.20;99.90;;;;;;5004709;28;20760;-71
2022/01/10 00:54:11;;;;;;;7.37;3.20;;;6.20;99.90;;;;;;5010839;28;20991;-71
2022/01/10 00:56:39;;;;;;;4.23;2.60;;;6.20;99.90;;;;;;5013453;28;20611;-71
2022/01/10 00:59:05;;;;;;;9.17;3.30;;;6.20;99.90;;;;;;5007809;28;20225;-70
2022/01/10 01:01:30;;;;;;;5.20;3.17;;;6.20;99.90;;;;;;5006321;28;20658;-71
2022/01/10 01:03:58;;;;;;;5.30;2.53;;;6.20;99.90;;;;;;5004734;28;20251;-71
2022/01/10 01:06:26;;;;;;;8.63;3.33;;;6.20;99.90;;;;;;5007735;28;20185;-71
2022/01/10 01:08:57;;;;;;;9.23;3.80;;;6.20;99.90;;;;;;5001046;28;21008;-70
2022/01/10 01:14:07;;;;;;;8.50;3.67;;;6.10;99.90;;;;;;5002735;28;20630;-70
2022/01/10 01:24:33;;;;;;;8.23;3.40;;;6.20;99.90;;;;;;5004176;28;20650;-71
2022/01/10 01:27:00;;;;;;;6.70;3.47;;;6.20;99.90;;;;;;5009897;28;20619;-71
2022/01/10 01:29:28;;;;;;;8.40;3.90;;;6.10;99.90;;;;;;5005217;28;20664;-70
2022/01/10 01:31:55;;;;;;;7.27;3.80;;;6.10;99.90;;;;;;5003732;28;20658;-71
2022/01/10 01:34:25;;;;;;;14.00;4.37;;;6.20;99.90;;;;;;5011856;28;20640;-70
2022/01/10 01:36:56;;;;;;;10.80;3.93;;;6.20;99.90;;;;;;5013200;28;20706;-71
2022/01/10 01:39:24;;;;;;;10.90;4.10;;;6.20;99.90;;;;;;5005708;28;20650;-71
2022/01/10 01:41:56;;;;;;;4.40;3.67;;;6.20;99.90;;;;;;5003998;28;20678;-71
2022/01/10 01:44:22;;;;;;;9.23;3.90;;;6.20;99.90;;;;;;5007026;28;21737;-71
2022/01/10 01:46:47;;;;;;;8.67;4.80;;;6.20;99.90;;;;;;5009561;28;20628;-71
2022/01/10 01:49:16;;;;;;;10.43;6.03;;;6.20;99.90;;;;;;5008602;28;20581;-73
2022/01/10 01:51:42;;;;;;;9.80;4.30;;;6.20;99.90;;;;;;5004280;28;20749;-71
2022/01/10 01:54:17;;;;;;;10.47;3.37;;;6.20;99.90;;;;;;5005302;28;20620;-70
2022/01/10 01:56:46;;;;;;;9.17;4.10;;;6.20;99.90;;;;;;5005833;28;20613;-71
2022/01/10 01:59:12;;;;;;;6.70;3.80;;;6.30;99.90;;;;;;5002059;28;21190;-71
2022/01/10 02:01:38;;;;;;;5.87;4.63;;;6.20;99.90;;;;;;5011328;28;20681;-71
2022/01/10 02:04:12;;;;;;;6.80;3.80;;;6.30;99.90;;;;;;5011803;28;20184;-71
2022/01/10 02:06:38;;;;;;;10.10;3.63;;;6.20;99.90;;;;;;5003986;28;20191;-71
2022/01/10 02:09:04;;;;;;;7.50;3.80;;;6.20;99.90;;;;;;5008420;28;20992;-71
2022/01/10 02:11:32;;;;;;;5.67;3.10;;;6.20;99.90;;;;;;5012904;28;20197;-71
2022/01/10 02:14:00;;;;;;;5.53;3.90;;;6.20;99.90;;;;;;5022576;28;20196;-71
2022/01/10 02:16:39;;;;;;;5.33;3.87;;;6.20;99.90;;;;;;5004790;28;20716;-70
2022/01/10 02:19:04;;;;;;;7.63;4.23;;;6.20;99.90;;;;;;5003363;28;20650;-71
2022/01/10 02:21:30;;;;;;;6.27;3.67;;;6.20;99.90;;;;;;5001765;28;20651;-71
2022/01/10 02:23:57;;;;;;;9.37;4.10;;;6.20;99.90;;;;;;5005796;28;20206;-71
2022/01/10 02:26:23;;;;;;;8.43;4.10;;;6.20;99.90;;;;;;5003298;28;20255;-70
2022/01/10 02:28:51;;;;;;;6.50;3.70;;;6.20;99.90;;;;;;5004335;28;20643;-71
2022/01/10 02:31:17;;;;;;;10.33;3.80;;;6.20;99.90;;;;;;5008479;28;20549;-71
2022/01/10 02:33:46;;;;;;;5.57;4.13;;;6.20;99.90;;;;;;5005822;28;20652;-71
2022/01/10 02:36:24;;;;;;;6.90;3.90;;;6.20;99.90;;;;;;5005647;28;20197;-71
2022/01/10 02:38:52;;;;;;;7.20;3.77;;;6.20;99.90;;;;;;5013955;28;20704;-71
2022/01/10 02:41:23;;;;;;;5.97;3.80;;;6.20;99.90;;;;;;5016145;28;21323;-71
2022/01/10 02:43:49;;;;;;;8.17;4.10;;;6.20;99.90;;;;;;5011887;28;20661;-70
2022/01/10 02:46:15;;;;;;;8.67;4.10;;;6.20;99.90;;;;;;5012059;28;20640;-71
2022/01/10 02:48:40;;;;;;;8.00;4.30;;;6.20;99.90;;;;;;5006466;28;20232;-71
2022/01/10 02:51:06;;;;;;;5.80;4.17;;;6.20;99.90;;;;;;5007975;28;20200;-71
2022/01/10 02:53:32;;;;;;;6.90;4.07;;;6.20;99.90;;;;;;5011323;28;20580;-71
2022/01/10 02:55:58;;;;;;;9.43;3.63;;;6.30;99.90;;;;;;5006286;28;20192;-71
2022/01/10 02:58:26;;;;;;;6.33;4.20;;;6.20;99.90;;;;;;5005252;28;20200;-74
2022/01/10 03:00:51;;;;;;;7.83;3.87;;;6.20;99.90;;;;;;5010219;28;20718;-71
2022/01/10 03:03:20;;;;;;;8.73;4.00;;;6.20;99.90;;;;;;5003939;28;22871;-71
2022/01/10 03:05:45;;;;;;;7.50;4.70;;;6.20;99.90;;;;;;4996507;28;20193;-71
2022/01/10 03:08:11;;;;;;;7.93;4.40;;;6.20;99.90;;;;;;5008224;28;21175;-71
2022/01/10 03:10:36;;;;;;;7.63;4.20;;;6.20;99.90;;;;;;5010078;28;20393;-71
2022/01/10 03:13:05;;;;;;;5.00;4.10;;;6.20;99.90;;;;;;5010909;28;20208;-71
2022/01/10 03:15:33;;;;;;;12.10;3.70;;;6.20;99.90;;;;;;5010721;28;20366;-70
2022/01/10 03:17:59;;;;;;;8.37;4.00;;;6.20;99.90;;;;;;5012170;28;20731;-71
2022/01/10 03:20:32;;;;;;;8.57;4.67;;;6.20;99.90;;;;;;5010391;28;20747;-71
2022/01/10 03:22:57;;;;;;;10.80;4.30;;;6.20;99.90;;;;;;5014122;28;20289;-71
2022/01/10 03:25:25;;;;;;;7.33;4.47;;;6.30;99.90;;;;;;5010490;28;20653;-71
2022/01/10 03:27:51;;;;;;;7.53;4.50;;;6.20;99.90;;;;;;5010022;28;20283;-71
2022/01/10 03:30:17;;;;;;;7.73;4.80;;;6.20;99.90;;;;;;5005384;28;20664;-70
2022/01/10 03:32:47;;;;;;;11.03;5.70;;;6.20;99.90;;;;;;5007224;28;20214;-71
2022/01/10 03:35:13;;;;;;;14.80;8.70;;;6.20;99.90;;;;;;5007288;28;20196;-71
2022/01/10 03:37:42;;;;;;;14.03;8.60;;;6.20;99.90;;;;;;5002696;28;20677;-72
2022/01/10 03:40:08;;;;;;;15.77;8.53;;;6.30;99.90;;;;;;5003716;28;20642;-71
2022/01/10 03:42:34;;;;;;;19.37;8.30;;;6.20;99.90;;;;;;5008195;28;20698;-70
2022/01/10 03:44:59;;;;;;;18.33;9.23;;;6.10;99.90;;;;;;5005439;28;21005;-70
2022/01/10 03:47:25;;;;;;;14.97;9.17;;;6.10;99.90;;;;;;5009178;28;20277;-71
2022/01/10 03:49:51;;;;;;;14.20;8.23;;;6.10;99.90;;;;;;5004095;28;20225;-71
2022/01/10 03:52:18;;;;;;;14.60;8.30;;;6.00;99.90;;;;;;5006061;28;20219;-70
2022/01/10 03:54:46;;;;;;;13.67;8.43;;;6.00;99.90;;;;;;5009482;28;20582;-71
2022/01/10 03:57:14;;;;;;;15.00;7.50;;;6.00;99.90;;;;;;5009082;28;20651;-71
2022/01/10 03:59:42;;;;;;;16.33;8.57;;;6.00;99.90;;;;;;5006678;28;20657;-71
2022/01/10 04:02:08;;;;;;;13.80;8.20;;;5.90;99.90;;;;;;5007982;28;20682;-71
2022/01/10 04:04:35;;;;;;;13.47;7.80;;;5.90;99.90;;;;;;5009021;28;20943;-71
2022/01/10 04:07:02;;;;;;;16.67;8.20;;;5.80;99.90;;;;;;5008796;28;20612;-71
2022/01/10 04:09:27;;;;;;;13.93;7.93;;;5.80;99.90;;;;;;5004654;28;20631;-71
2022/01/10 04:11:55;;;;;;;20.73;8.30;;;5.80;99.90;;;;;;5006007;28;20953;-71
2022/01/10 04:14:21;;;;;;;19.23;7.70;;;5.70;99.90;;;;;;5011489;28;20201;-71
2022/01/10 04:16:48;;;;;;;17.33;7.73;;;5.70;99.90;;;;;;5008181;28;20620;-71
2022/01/10 04:19:14;;;;;;;13.47;6.80;;;5.70;99.90;;;;;;5008241;28;20607;-71
2022/01/10 04:21:40;;;;;;;11.53;6.83;;;5.70;99.90;;;;;;5006137;28;20648;-71
2022/01/10 04:24:06;;;;;;;14.53;8.57;;;5.70;99.90;;;;;;5011150;28;20623;-70
2022/01/10 04:26:31;;;;;;;12.50;7.90;;;5.60;99.90;;;;;;5011853;28;20350;-71
2022/01/10 04:28:57;;;;;;;11.27;7.80;;;5.60;99.90;;;;;;5008015;28;20219;-70
2022/01/10 04:31:28;;;;;;;10.07;7.50;;;5.60;99.90;;;;;;5008428;28;20189;-70
2022/01/10 04:33:54;;;;;;;13.77;7.03;;;5.60;99.90;;;;;;5006921;28;20193;-71
2022/01/10 04:36:22;;;;;;;9.77;7.50;;;5.50;99.90;;;;;;5019989;28;20653;-71
2022/01/10 04:38:48;;;;;;;9.20;6.70;;;5.50;99.90;;;;;;5008459;28;20228;-71
2022/01/10 04:41:23;;;;;;;9.30;6.33;;;5.50;99.90;;;;;;5006980;28;20626;-71
2022/01/10 04:43:49;;;;;;;10.20;7.03;;;5.50;99.90;;;;;;5008190;28;20236;-71
2022/01/10 04:46:14;;;;;;;10.37;7.10;;;5.50;99.90;;;;;;5011243;28;20951;-71
2022/01/10 04:48:40;;;;;;;7.63;6.50;;;5.50;99.90;;;;;;5007921;28;20232;-71
2022/01/10 04:51:12;;;;;;;7.80;6.67;;;5.50;99.90;;;;;;5008302;28;20319;-72
2022/01/10 04:53:40;;;;;;;8.93;6.90;;;5.50;99.90;;;;;;5007914;28;20224;-71
2022/01/10 04:56:12;;;;;;;7.53;6.03;;;5.50;99.90;;;;;;5010178;28;22947;-71
2022/01/10 04:58:37;;;;;;;7.53;6.10;;;5.50;99.90;;;;;;5011685;28;20641;-71
2022/01/10 05:01:04;;;;;;;7.77;6.30;;;5.40;99.90;;;;;;5010772;28;20678;-72
2022/01/10 05:03:40;;;;;;;9.17;7.10;;;5.50;99.90;;;;;;5006612;28;20219;-71
2022/01/10 05:06:10;;;;;;;7.90;6.30;;;5.50;99.90;;;;;;5011461;28;20614;-71
2022/01/10 05:08:42;;;;;;;7.60;6.80;;;5.40;99.90;;;;;;5013554;28;20649;-71
2022/01/10 05:11:10;;;;;;;7.90;6.90;;;5.40;99.90;;;;;;5011685;28;20605;-72
2022/01/10 05:13:35;;;;;;;7.63;6.60;;;5.40;99.90;;;;;;5009941;28;20730;-71
2022/01/10 05:16:03;;;;;;;10.03;7.60;;;5.40;99.90;;;;;;5012767;28;20698;-71
2022/01/10 05:18:31;;;;;;;9.50;8.10;;;5.40;99.90;;;;;;5008458;28;20205;-71
2022/01/10 05:20:58;;;;;;;9.97;8.30;;;5.40;99.90;;;;;;5010032;28;20652;-71
2022/01/10 05:23:24;;;;;;;12.17;9.20;;;5.10;99.90;;;;;;5011690;28;20740;-71
2022/01/10 05:25:50;;;;;;;12.30;8.87;;;5.30;99.90;;;;;;5015062;28;20616;-71
2022/01/10 05:28:19;;;;;;;9.83;7.67;;;5.30;99.90;;;;;;4999275;28;20268;-70
2022/01/10 05:30:50;;;;;;;11.17;8.60;;;5.30;99.90;;;;;;5007929;28;20216;-72
2022/01/10 05:33:17;;;;;;;10.37;8.30;;;5.40;99.90;;;;;;5012697;28;20734;-71
2022/01/10 05:35:46;;;;;;;11.20;8.87;;;5.30;99.90;;;;;;5012040;28;20628;-71
2022/01/10 05:38:16;;;;;;;11.73;8.07;;;5.20;99.90;;;;;;4992952;28;20659;-71
2022/01/10 05:40:44;;;;;;;10.87;8.77;;;5.20;99.90;;;;;;5009887;28;20974;-71
2022/01/10 05:43:10;;;;;;;11.23;8.07;;;5.20;99.90;;;;;;5007686;28;20679;-71
2022/01/10 05:45:42;;;;;;;10.90;8.50;;;5.20;99.90;;;;;;5008206;28;20998;-71
2022/01/10 05:48:12;;;;;;;10.60;8.23;;;5.20;99.90;;;;;;5013930;28;20656;-71
2022/01/10 05:50:42;;;;;;;10.10;8.27;;;5.20;99.90;;;;;;5009061;28;20639;-70
2022/01/10 05:53:10;;;;;;;11.47;9.47;;;5.20;99.90;;;;;;5012933;28;20637;-71
2022/01/10 05:55:38;;;;;;;11.30;8.10;;;5.20;99.90;;;;;;5009516;28;21038;-71
2022/01/10 05:58:05;;;;;;;11.43;8.00;;;5.20;99.90;;;;;;5007535;28;20687;-71
2022/01/10 06:00:36;;;;;;;10.77;8.27;;;5.20;99.90;;;;;;4996884;28;20634;-70
2022/01/10 06:03:03;;;;;;;11.93;9.13;;;5.30;99.90;;;;;;5004700;28;20719;-71
2022/01/10 06:05:31;;;;;;;12.30;8.50;;;5.20;99.90;;;;;;5006804;28;20616;-71
2022/01/10 06:08:02;;;;;;;11.23;8.70;;;5.30;99.90;;;;;;5000530;28;20607;-71
2022/01/10 06:10:29;;;;;;;10.00;8.40;;;5.30;99.90;;;;;;4999737;28;20723;-71
2022/01/10 06:12:55;;;;;;;13.07;9.83;;;5.30;99.90;;;;;;4996967;28;21087;-71
2022/01/10 06:15:21;;;;;;;12.00;9.03;;;5.30;99.90;;;;;;5004427;28;20636;-71
2022/01/10 06:17:46;;;;;;;13.10;9.23;;;5.30;99.90;;;;;;4997391;28;20787;-71
2022/01/10 06:20:12;;;;;;;13.60;10.77;;;5.30;99.90;;;;;;5004097;28;20688;-71
2022/01/10 06:22:38;;;;;;;10.30;9.10;;;5.30;99.90;;;;;;5012181;28;20221;-71
2022/01/10 06:25:06;;;;;;;12.13;9.63;;;5.30;99.90;;;;;;5007402;28;20635;-71
2022/01/10 06:27:32;;;;;;;11.90;9.07;;;5.30;99.90;;;;;;5005812;28;20204;-71
2022/01/10 06:29:57;;;;;;;12.73;9.20;;;5.30;99.90;;;;;;5010121;28;20933;-71
2022/01/10 06:32:23;;;;;;;12.87;10.37;;;5.30;99.90;;;;;;5002901;28;20217;-71
2022/01/10 06:34:49;;;;;;;14.00;10.43;;;5.30;99.90;;;;;;5002908;28;20620;-71
2022/01/10 06:37:15;;;;;;;12.07;9.30;;;5.30;99.90;;;;;;5004211;28;20665;-71
2022/01/10 06:39:40;;;;;;;12.90;9.83;;;5.30;99.90;;;;;;4997677;28;21132;-71
2022/01/10 06:42:07;;;;;;;10.87;9.17;;;5.20;99.90;;;;;;5003096;28;20234;-71
2022/01/10 06:44:32;;;;;;;13.43;10.70;;;5.20;99.90;;;;;;5003982;28;20323;-71
2022/01/10 06:46:58;;;;;;;13.13;10.03;;;5.20;99.90;;;;;;5004948;28;20620;-71
2022/01/10 06:49:23;;;;;;;12.57;8.93;;;5.20;99.90;;;;;;5009558;28;20221;-71
2022/01/10 06:51:49;;;;;;;14.63;11.20;;;5.20;99.90;;;;;;5009459;28;20207;-71
2022/01/10 06:54:15;;;;;;;16.73;10.43;;;5.20;99.90;;;;;;5011049;28;20186;-70
2022/01/10 06:56:41;;;;;;;15.40;10.67;;;5.20;99.90;;;;;;5001081;28;20192;-71
2022/01/10 06:59:07;;;;;;;14.43;10.20;;;5.20;99.90;;;;;;5000619;28;20300;-71
2022/01/10 07:01:32;;;;;;;12.70;9.73;;;5.10;99.90;;;;;;5001150;28;20737;-71
2022/01/10 07:03:59;;;;;;;12.37;10.33;;;5.10;99.90;;;;;;4989592;28;20839;-71
2022/01/10 07:06:25;;;;;;;13.13;10.10;;;5.10;99.90;;;;;;4990172;28;20186;-71
2022/01/10 07:08:50;;;;;;;15.13;10.80;;;5.10;99.90;;;;;;5020153;28;20627;-71
2022/01/10 07:11:16;;;;;;;16.40;11.57;;;5.10;99.90;;;;;;5003096;28;20197;-71
2022/01/10 07:13:44;;;;;;;13.53;10.30;;;5.10;99.90;;;;;;5000992;28;20201;-71
2022/01/10 07:16:12;;;;;;;16.27;11.30;;;5.10;99.90;;;;;;5004501;28;20181;-71
2022/01/10 07:18:39;;;;;;;14.87;10.53;;;5.10;99.90;;;;;;5007336;28;20659;-70
2022/01/10 07:21:04;;;;;;;15.90;11.70;;;5.10;99.90;;;;;;5003443;28;20619;-71
2022/01/10 07:23:30;;;;;;;15.40;11.40;;;5.10;99.90;;;;;;4995460;28;20680;-71
2022/01/10 07:25:55;;;;;;;16.50;10.40;;;5.10;99.90;;;;;;4995543;28;20210;-70
2022/01/10 07:28:21;;;;;;;15.10;10.93;;;5.10;99.90;;;;;;5004146;28;20669;-70
2022/01/10 07:30:49;;;;;;;14.13;11.10;;;5.10;99.90;;;;;;4997394;28;20199;-71
2022/01/10 07:33:14;;;;;;;16.43;11.03;;;5.10;99.90;;;;;;5006239;28;20295;-70
2022/01/10 07:35:40;;;;;;;19.20;11.83;;;5.10;99.90;;;;;;5002495;28;20623;-71
2022/01/10 07:38:06;;;;;;;16.40;10.30;;;5.10;99.90;;;;;;5006252;28;20624;-70
2022/01/10 07:40:31;;;;;;;14.60;11.00;;;5.10;99.90;;;;;;5005203;28;20308;-70
2022/01/10 07:42:57;;;;;;;16.13;10.80;;;5.10;99.90;;;;;;5007834;28;20308;-70
2022/01/10 07:45:22;;;;;;;14.67;10.37;;;5.10;99.90;;;;;;5014130;28;20614;-71
2022/01/10 07:47:49;;;;;;;15.97;11.40;;;5.10;99.90;;;;;;5005501;28;20251;-71
2022/01/10 07:50:14;;;;;;;14.67;10.80;;;5.10;99.90;;;;;;5006662;28;22380;-71
2022/01/10 07:52:40;;;;;;;16.17;12.07;;;5.10;99.90;;;;;;4998011;28;20715;-71
2022/01/10 07:55:06;;;;;;;15.57;11.77;;;5.10;99.90;;;;;;5001967;28;20186;-71
2022/01/10 07:57:32;;;;;;;17.70;12.57;;;5.10;99.90;;;;;;5006913;28;20268;-71
2022/01/10 07:59:57;;;;;;;16.40;12.20;;;5.10;99.90;;;;;;5006489;28;20727;-71
2022/01/10 08:02:24;;;;;;;14.93;11.10;;;5.10;99.90;;;;;;5004243;28;20434;-70
2022/01/10 08:04:50;;;;;;;16.30;12.30;;;5.10;99.90;;;;;;5000445;28;20425;-71
2022/01/10 08:07:16;;;;;;;14.00;11.13;;;5.10;99.90;;;;;;4993080;28;20612;-71
2022/01/10 08:09:42;;;;;;;18.10;12.53;;;5.10;99.90;;;;;;5007153;28;20691;-71
2022/01/10 08:12:08;;;;;;;18.70;12.97;;;5.10;99.90;;;;;;5008680;28;21088;-71
2022/01/10 08:14:34;;;;;;;20.13;14.20;;;5.10;99.90;;;;;;5006006;28;21422;-72
2022/01/10 08:17:01;;;;;;;17.70;12.87;;;5.10;99.90;;;;;;5005753;28;20709;-70
2022/01/10 08:19:27;;;;;;;20.17;13.67;;;5.10;99.90;;;;;;5007394;28;20636;-71
2022/01/10 08:21:55;;;;;;;19.53;13.23;;;5.10;99.90;;;;;;5021903;28;20710;-70
2022/01/10 08:24:22;;;;;;;18.10;12.53;;;5.10;99.90;;;;;;5007867;28;20762;-71
2022/01/10 08:26:48;;;;;;;19.80;13.70;;;5.10;99.90;;;;;;5005369;28;20697;-71
2022/01/10 08:29:14;;;;;;;18.47;13.00;;;5.20;99.90;;;;;;5005390;28;20647;-71
2022/01/10 08:31:40;;;;;;;18.67;13.33;;;5.20;99.90;;;;;;5013072;28;20616;-71
2022/01/10 08:34:06;;;;;;;19.60;13.40;;;5.20;99.90;;;;;;5015435;28;21370;-71
2022/01/10 08:36:33;;;;;;;18.37;12.67;;;5.20;99.90;;;;;;5012886;28;20244;-71
2022/01/10 08:38:58;;;;;;;19.87;13.40;;;5.20;99.90;;;;;;5011524;28;21586;-71
2022/01/10 08:41:24;;;;;;;21.60;15.10;;;5.20;99.90;;;;;;5012323;28;20730;-71
2022/01/10 08:43:49;;;;;;;20.07;13.70;;;5.20;99.90;;;;;;5009087;28;20739;-71
2022/01/10 08:46:18;;;;;;;18.47;13.47;;;5.20;99.90;;;;;;5011725;28;20212;-71
2022/01/10 08:48:44;;;;;;;19.30;13.50;;;5.20;99.90;;;;;;5015495;28;20228;-70
2022/01/10 08:51:10;;;;;;;16.90;12.20;;;5.20;99.90;;;;;;5016018;28;21031;-71
2022/01/10 08:53:36;;;;;;;19.33;12.90;;;5.20;99.90;;;;;;5007833;28;22467;-71
2022/01/10 08:56:03;;;;;;;21.00;13.43;;;5.20;99.90;;;;;;5005560;28;20616;-71
2022/01/10 08:58:32;;;;;;;17.83;13.37;;;5.30;99.90;;;;;;5014532;28;20704;-71
2022/01/10 09:01:03;;;;;;;18.53;13.53;;;5.20;99.90;;;;;;5013387;28;21264;-71
2022/01/10 09:03:29;;;;;;;19.03;13.70;;;5.20;99.90;;;;;;4999828;28;20760;-70
2022/01/10 09:05:55;;;;;;;25.17;14.13;;;5.30;99.90;;;;;;5005956;28;20604;-71
2022/01/10 09:08:23;;;;;;;19.57;13.57;;;5.30;99.90;;;;;;5000406;28;20831;-71
2022/01/10 09:10:49;;;;;;;18.73;12.77;;;5.30;99.90;;;;;;5004947;28;20604;-70
2022/01/10 09:13:15;;;;;;;18.63;12.87;;;5.30;99.90;;;;;;5009363;28;20654;-71
2022/01/10 09:15:40;;;;;;;17.67;12.67;;;5.30;99.90;;;;;;5004788;28;20262;-71
2022/01/10 09:18:06;;;;;;;16.37;12.40;;;5.30;99.90;;;;;;5004038;28;20239;-70
2022/01/10 09:20:31;;;;;;;17.40;12.27;;;5.40;99.90;;;;;;5016429;28;20595;-71
2022/01/10 09:22:57;;;;;;;17.50;13.40;;;5.40;99.90;;;;;;5000643;28;20218;-70
2022/01/10 09:25:23;;;;;;;22.77;15.90;;;5.40;99.90;;;;;;5003267;28;20189;-71
2022/01/10 09:27:49;;;;;;;20.60;14.77;;;5.40;99.90;;;;;;4997258;28;20656;-71
2022/01/10 09:30:16;;;;;;;25.40;16.30;;;5.40;99.90;;;;;;4998533;28;20228;-71
2022/01/10 09:32:41;;;;;;;26.40;15.50;;;5.40;99.90;;;;;;5003648;28;20526;-71
2022/01/10 09:35:08;;;;;;;26.47;15.40;;;5.50;99.90;;;;;;5001568;28;20620;-70
2022/01/10 09:37:34;;;;;;;27.20;16.43;;;5.40;99.90;;;;;;4999693;28;20547;-70
2022/01/10 09:39:59;;;;;;;29.07;16.80;;;5.50;99.90;;;;;;5002244;28;21037;-71
2022/01/10 09:42:25;;;;;;;26.10;16.13;;;5.50;99.90;;;;;;5002686;28;20221;-71
2022/01/10 09:44:51;;;;;;;25.47;15.90;;;5.50;99.90;;;;;;5008241;28;20259;-71
2022/01/10 09:47:17;;;;;;;26.60;17.00;;;5.50;99.90;;;;;;5004541;28;21200;-71
2022/01/10 09:49:42;;;;;;;24.83;16.73;;;5.50;99.90;;;;;;5005305;28;20732;-71
2022/01/10 09:52:08;;;;;;;31.20;17.73;;;5.50;99.90;;;;;;5000931;28;20267;-70
2022/01/10 09:54:34;;;;;;;26.93;17.57;;;5.60;99.90;;;;;;5001341;28;20292;-71
2022/01/10 09:57:00;;;;;;;27.77;18.17;;;5.60;99.90;;;;;;5006150;28;20628;-71
2022/01/10 09:59:27;;;;;;;32.37;18.67;;;5.60;99.90;;;;;;5006490;28;20743;-70
2022/01/10 10:01:53;;;;;;;29.20;17.83;;;5.70;99.90;;;;;;5009855;28;20271;-71
2022/01/10 10:04:19;;;;;;;29.83;18.07;;;5.70;99.90;;;;;;5005738;28;20636;-71
2022/01/10 10:06:45;;;;;;;28.63;18.23;;;5.70;99.90;;;;;;5003274;28;20324;-71
2022/01/10 10:09:11;;;;;;;27.20;17.27;;;5.70;99.90;;;;;;5005378;28;20221;-71
2022/01/10 10:11:43;;;;;;;27.80;18.00;;;5.70;99.90;;;;;;5002730;28;20627;-70
2022/01/10 10:14:11;;;;;;;31.37;20.07;;;5.70;99.90;;;;;;5004242;28;20190;-70
2022/01/10 10:16:40;;;;;;;28.90;17.87;;;5.70;99.90;;;;;;5003487;28;21237;-71
2022/01/10 10:19:06;;;;;;;28.13;18.63;;;5.80;99.90;;;;;;5004605;28;20706;-70
2022/01/10 10:21:32;;;;;;;28.77;18.23;;;5.80;99.90;;;;;;5000989;28;21259;-70
2022/01/10 10:23:58;;;;;;;28.90;17.57;;;5.80;99.90;;;;;;5005807;28;20672;-70
2022/01/10 10:26:26;;;;;;;31.77;19.40;;;5.80;99.90;;;;;;5005085;28;20631;-71
2022/01/10 10:28:54;;;;;;;31.10;19.13;;;5.90;99.90;;;;;;5004283;28;20213;-71
2022/01/10 10:31:28;;;;;;;27.00;18.60;;;5.90;99.90;;;;;;5006590;28;21238;-71
2022/01/10 10:33:54;;;;;;;33.23;19.70;;;5.90;99.90;;;;;;5003046;28;21225;-71
2022/01/10 10:36:25;;;;;;;29.63;18.83;;;5.90;99.90;;;;;;5002543;28;20619;-70
2022/01/10 10:38:50;;;;;;;30.00;18.60;;;6.00;99.90;;;;;;5002227;28;20640;-74
2022/01/10 10:41:16;;;;;;;27.97;17.93;;;6.00;99.90;;;;;;5003574;28;21392;-71
2022/01/10 10:43:43;;;;;;;30.07;18.90;;;6.00;99.90;;;;;;5006710;28;20235;-71
2022/01/10 10:46:16;;;;;;;32.43;17.83;;;6.00;99.90;;;;;;4999347;28;20193;-71
2022/01/10 10:48:44;;;;;;;33.40;20.90;;;6.00;99.90;;;;;;5021748;28;20771;-71
2022/01/10 10:51:12;;;;;;;35.40;20.60;;;5.90;99.90;;;;;;5002173;28;20654;-72
2022/01/10 10:53:39;;;;;;;35.20;20.57;;;5.90;99.90;;;;;;4994540;28;20651;-71
2022/01/10 10:56:05;;;;;;;32.77;19.80;;;5.90;99.90;;;;;;4997018;28;20998;-70
2022/01/10 10:58:32;;;;;;;34.77;20.33;;;6.00;99.90;;;;;;5004135;28;20651;-71
2022/01/10 11:00:59;;;;;;;40.47;22.83;;;5.90;99.90;;;;;;5001734;28;20616;-71
2022/01/10 11:03:25;;;;;;;36.43;21.83;;;5.90;99.90;;;;;;5007678;28;20857;-71
2022/01/10 11:05:59;;;;;;;35.50;20.33;;;5.90;99.90;;;;;;5002732;28;20699;-71
2022/01/10 11:08:31;;;;;;;37.50;21.37;;;6.00;99.90;;;;;;5000771;28;20726;-70
2022/01/10 11:10:59;;;;;;;35.57;20.50;;;6.00;99.90;;;;;;5004058;28;20604;-71
2022/01/10 11:13:25;;;;;;;34.53;20.80;;;6.00;99.90;;;;;;5013553;28;20648;-71
2022/01/10 11:15:52;;;;;;;34.87;19.60;;;6.00;99.90;;;;;;5015851;28;20652;-70
2022/01/10 11:18:20;;;;;;;34.30;19.40;;;6.00;99.90;;;;;;5014109;28;21170;-70
2022/01/10 11:20:48;;;;;;;31.63;19.17;;;6.00;99.90;;;;;;5008647;28;21125;-71
2022/01/10 11:23:14;;;;;;;30.00;19.17;;;6.00;99.90;;;;;;5016764;28;20675;-71
2022/01/10 11:25:42;;;;;;;31.53;20.00;;;6.00;99.90;;;;;;5015094;28;20607;-70
2022/01/10 11:28:10;;;;;;;36.67;20.80;;;6.10;99.90;;;;;;5007945;28;20247;-71
2022/01/10 11:30:42;;;;;;;32.03;20.37;;;6.10;99.90;;;;;;5011736;28;20973;-71
2022/01/10 11:33:16;;;;;;;32.07;19.17;;;6.10;99.90;;;;;;5010210;28;20659;-71
2022/01/10 11:35:51;;;;;;;29.00;19.40;;;6.10;99.90;;;;;;5011278;28;20993;-70
2022/01/10 11:38:31;;;;;;;36.33;19.43;;;6.10;99.90;;;;;;5004275;28;20825;-70
2022/01/10 11:41:01;;;;;;;32.97;19.90;;;6.10;99.90;;;;;;5009047;28;20623;-70
2022/01/10 11:43:44;;;;;;;29.40;20.30;;;6.10;99.90;;;;;;5008976;28;21302;-70
2022/01/10 11:46:23;;;;;;;33.17;19.77;;;6.20;99.90;;;;;;5011923;28;21184;-70
2022/01/10 11:49:00;;;;;;;32.07;19.23;;;6.10;99.90;;;;;;5013683;28;20644;-70
2022/01/10 11:51:31;;;;;;;30.50;19.70;;;6.20;99.90;;;;;;5016091;28;20568;-70
2022/01/10 11:54:17;;;;;;;29.30;19.77;;;6.20;99.90;;;;;;5016599;28;20612;-70
2022/01/10 11:56:51;;;;;;;33.03;20.10;;;6.30;99.90;;;;;;5016587;28;20647;-70
2022/01/10 11:59:26;;;;;;;25.57;17.73;;;6.30;99.90;;;;;;5012957;28;20635;-70
2022/01/10 12:02:05;;;;;;;27.40;18.17;;;6.40;99.90;;;;;;5007403;28;20671;-70
2022/01/10 12:05:00;;;;;;;29.80;19.03;;;6.50;99.90;;;;;;5011155;28;20628;-70
2022/01/10 12:07:27;;;;;;;30.13;19.00;;;6.60;99.90;;;;;;5012753;28;20620;-70
2022/01/10 12:09:54;;;;;;;28.30;19.20;;;6.60;99.90;;;;;;5021026;28;20632;-70
2022/01/10 12:12:22;;;;;;;28.80;18.27;;;6.60;99.90;;;;;;5008926;28;20671;-70
2022/01/10 12:14:49;;;;;;;30.67;19.80;;;6.70;99.90;;;;;;5013099;28;21116;-70
2022/01/10 12:17:15;;;;;;;27.67;19.33;;;6.70;99.90;;;;;;5019534;28;20691;-70
2022/01/10 12:19:41;;;;;;;29.50;18.20;;;6.70;99.90;;;;;;5017272;28;20631;-70
2022/01/10 12:22:08;;;;;;;30.37;20.93;;;6.70;99.90;;;;;;5012892;28;20735;-70
2022/01/10 12:24:36;;;;;;;30.63;20.07;;;6.70;99.90;;;;;;5016910;28;20684;-70
2022/01/10 12:27:06;;;;;;;29.43;20.20;;;6.70;99.90;;;;;;5005317;28;20612;-70
2022/01/10 12:29:32;;;;;;;28.83;19.43;;;6.70;99.90;;;;;;5002204;28;20692;-70
2022/01/10 12:32:00;;;;;;;27.07;18.40;;;6.70;99.90;;;;;;5008681;28;20644;-70
2022/01/10 12:34:29;;;;;;;28.03;18.93;;;6.70;99.90;;;;;;5015674;28;20231;-71
2022/01/10 12:36:55;;;;;;;26.73;18.63;;;6.70;99.90;;;;;;5006061;28;20955;-70
2022/01/10 12:39:27;;;;;;;28.47;18.83;;;6.70;99.90;;;;;;5008277;28;20632;-71
2022/01/10 12:41:56;;;;;;;29.67;17.80;;;6.70;99.90;;;;;;5029743;28;20307;-70
2022/01/10 12:44:24;;;;;;;24.53;16.83;;;6.70;99.90;;;;;;5016477;28;20619;-71
2022/01/10 12:46:49;;;;;;;23.00;17.30;;;6.70;99.90;;;;;;5016638;28;20650;-71
2022/01/10 12:49:16;;;;;;;27.37;17.60;;;6.70;99.90;;;;;;5019980;28;20632;-71
2022/01/10 12:51:53;;;;;;;21.93;15.57;;;6.70;99.90;;;;;;5015935;28;20181;-71
2022/01/10 12:54:27;;;;;;;27.57;17.17;;;6.70;99.90;;;;;;5011829;28;20593;-71
2022/01/10 12:56:56;;;;;;;27.67;17.03;;;6.70;99.90;;;;;;5012450;28;20686;-70